Terminal Aerodrome Forecast
Issued by NWS

Home | Current Version | Previous Version | Text Only | Print | Product List | Glossary On
Versions: 1 2 3 4 5 6 7 8 9 10 11 12 13 14
000
FTUS46 KSEW 140500
TAFOLM
TAF
KOLM 140540Z 1406/1506 21005KT P6SM SKC
     FM141100 21003KT P6SM SCT007
      TEMPO 1412/1416 BKN007
     FM141900 36006KT P6SM SKC=

USA.gov is the U.S. government's official web portal to all federal, state and local government web resources and services.